Chimbaj, Uzbekistan
Current Conditions -  °F | °C
As of 2:30 AM on Wednesday 22 Oct 2014 (Local Time) from UTNN Reporting Station
Clear Clear  
Wind Chill: 41°   Ceiling: Unl
Heat Index: 45°   Visibility: 6mi
Dew Point: 34°   Wind: 7mph
Humidity: 66%   Direction: 50°NE
Pressure: 29.97"   Gusts: NA
Location:  42.95°N, 59.82°E
Report Text: UTNN 212130Z 05003MPS CAVOK 07/01 Q1015 R15/CLRD60 NOSIG
Loading
Personal Weather Stations






























Interactive Weather Map
Tropical Storm Tracking
New forecast layout! Learn more

10-Day Weather Forecast

Advertisements
Track Severe Weather on mobile